Castro Valley, CA (94546)

6:10 PM PST on December 20, 2014 (GMT -0800)
Castro Valley | Change Station
CLOSE
Current Station
Personal Weather Station
Location: Castro Valley, CA
Elevation: 367 ft
Nearby Weather Stations
Active Advisory: Coastal Flood Advisory

Elev 367 ft 37.72 °N, 122.08 °W | Updated 4 minutes ago

Overcast
Overcast
56.3 °F
Feels Like 56.3 °F
N
0.0
Wind Variable Wind from North
Gusts 0.0 mph

Today
High -- | Low -- °F
--% Chance of Precip.
Yesterday
High -- | Low -- °F
Precip. -- in
7:19 AM 4:52 PM
Waning Crescent, 1% visible
Pressure 30.25 in
Visibility 10.0 miles
Clouds Overcast 4400 ft
Dew Point 45 °F
Humidity 66%
Rainfall 0.04 in
Snow Depth Not available.
UV 0 out of 12
Pollen 4.00 out of 12
Air Quality Not available.
Flu Activity Not available.
METAR KHWD 210154Z 00000KT 10SM OVC044 16/12 A3022 RMK AO2 SLP242 T01610122

More Conditions Fewer Conditions

Pressure 30.25 in
Visibility 10.0 miles
Clouds Overcast 4400 ft
Dew Point 45 °F
Humidity 66%
Rainfall 0.04 in
Snow Depth Not available.
UV 0 out of 12
Pollen 4.00 out of 12
Air Quality Not available.
Flu Activity Not available.
METAR KHWD 210154Z 00000KT 10SM OVC044 16/12 A3022 RMK AO2 SLP242 T01610122

More Conditions Fewer Conditions

10-Day Weather Forecast

Almanac

Astronomy

Dec. 20, 2014 Rise Set
Actual Time
Civil Twilight
Nautical Twilight
Astronomical Twilight
Moon
Length of Visible Light
Length of Day
Tomorrow will be .
, % of the Moon is Illuminated

Today's Extremes

State Highs State Lows

Community

WunderPhotos

Upload Photos

1,779,346 photos uploaded!

WunderBlogs® & News

Nearby

Air Quality

  Air Quality AQ Index Pollutant
Not available.

Snow Depth

Station Depth Elevation

Earthquake Activity

City Distance Mag. Time & Date
Minimum magnitude displayed is 2.5.

Coastal Water Temperatures

Place Temperature

Nearby Weather Stations